Time;durP1;ratioP1;P1;durP2;ratioP2;P2;SDS_P1;SDS_P2;PMS_P1;PMS_P2;Temp;Humidity;BMP_temperature;BMP_pressure;BME280_temperature;BME280_humidity;BME280_pressure;Samples;Min_cycle;Max_cycle;Signal;HPM_P1;HPM_P2
2022/12/02 00:00:57;;;;;;;4.13;1.13;;;24.70;61.10;;;;;;5002390;28;20085;-64
2022/12/02 00:03:25;;;;;;;6.88;1.45;;;25.10;60.30;;;;;;5009215;28;20073;-64
2022/12/02 00:05:54;;;;;;;6.10;1.40;;;25.10;59.30;;;;;;5013206;28;20023;-65
2022/12/02 00:08:24;;;;;;;8.23;1.92;;;25.00;62.10;;;;;;5007363;28;20041;-64
2022/12/02 00:10:54;;;;;;;8.05;1.65;;;25.10;60.50;;;;;;5017335;28;20026;-64
2022/12/02 00:13:34;;;;;;;7.20;1.42;;;25.10;60.80;;;;;;5012917;28;20033;-64
2022/12/02 00:16:04;;;;;;;5.68;1.10;;;25.20;58.80;;;;;;5011320;28;20049;-64
2022/12/02 00:18:31;;;;;;;11.73;2.13;;;25.00;57.60;;;;;;5004965;28;20107;-63
2022/12/02 00:20:58;;;;;;;6.60;1.73;;;24.60;59.70;;;;;;5007389;28;20022;-64
2022/12/02 00:23:26;;;;;;;6.50;1.73;;;24.50;60.60;;;;;;5009070;28;20053;-63
2022/12/02 00:25:54;;;;;;;8.48;1.35;;;24.10;61.20;;;;;;5012595;28;20022;-64
2022/12/02 00:28:21;;;;;;;6.88;1.20;;;23.80;63.60;;;;;;5014318;28;20045;-64
2022/12/02 00:30:49;;;;;;;11.85;1.77;;;24.00;62.60;;;;;;5014641;28;20030;-65
2022/12/02 00:33:17;;;;;;;6.10;1.08;;;24.00;60.30;;;;;;5008261;28;20514;-64
2022/12/02 00:35:45;;;;;;;5.38;0.90;;;23.90;58.10;;;;;;5008588;28;20038;-64
2022/12/02 00:38:12;;;;;;;7.63;1.70;;;24.10;57.90;;;;;;5004707;28;20026;-64
2022/12/02 00:40:40;;;;;;;7.78;0.98;;;23.90;57.70;;;;;;5009183;28;20040;-64
2022/12/02 00:48:37;;;;;;;5.63;1.38;;;24.00;59.40;;;;;;5012642;28;20029;-64
2022/12/02 00:51:05;;;;;;;7.13;1.73;;;24.20;60.00;;;;;;5010548;28;20110;-64
2022/12/02 00:53:33;;;;;;;5.90;1.30;;;23.90;59.70;;;;;;5010711;28;20029;-64
2022/12/02 00:56:00;;;;;;;2.53;0.85;;;23.80;58.30;;;;;;5013117;28;20037;-64
2022/12/02 00:58:27;;;;;;;7.00;1.40;;;23.40;59.40;;;;;;5011885;28;20056;-64
2022/12/02 01:00:55;;;;;;;6.13;1.20;;;23.20;59.60;;;;;;5012226;28;20034;-64
2022/12/02 01:03:22;;;;;;;8.63;1.63;;;23.30;60.00;;;;;;5011318;28;20022;-64
2022/12/02 01:05:49;;;;;;;4.45;0.93;;;23.50;61.20;;;;;;5011123;28;20037;-65
2022/12/02 01:08:16;;;;;;;6.78;1.25;;;23.70;60.20;;;;;;5014618;28;20052;-64
2022/12/02 01:10:44;;;;;;;9.13;1.33;;;24.00;59.40;;;;;;5018465;28;20026;-64
2022/12/02 01:13:11;;;;;;;4.88;1.23;;;24.20;56.20;;;;;;5010426;28;20028;-64
2022/12/02 01:15:38;;;;;;;7.10;1.23;;;24.30;58.10;;;;;;5011857;28;20040;-64
2022/12/02 01:18:05;;;;;;;5.47;0.90;;;24.50;58.30;;;;;;5012890;28;20034;-65
2022/12/02 01:20:33;;;;;;;7.57;1.35;;;24.70;56.90;;;;;;5012477;28;20045;-65
2022/12/02 01:23:00;;;;;;;2.90;1.17;;;24.60;55.90;;;;;;5009703;28;20029;-65
2022/12/02 01:25:27;;;;;;;5.45;0.98;;;24.70;56.70;;;;;;5009208;28;20022;-66
2022/12/02 01:27:54;;;;;;;4.57;1.08;;;25.20;56.60;;;;;;5010251;28;20030;-66
2022/12/02 01:30:21;;;;;;;3.88;1.02;;;25.60;54.50;;;;;;5009644;28;20057;-65
2022/12/02 01:32:49;;;;;;;4.63;1.33;;;25.00;56.60;;;;;;5010518;28;20407;-66
2022/12/02 01:35:16;;;;;;;3.15;0.82;;;25.20;56.30;;;;;;5009865;28;20046;-66
2022/12/02 01:37:43;;;;;;;2.92;0.90;;;25.50;56.00;;;;;;5014790;28;20025;-64
2022/12/02 01:40:11;;;;;;;5.18;0.75;;;25.40;53.10;;;;;;5010852;28;20037;-65
2022/12/02 01:42:40;;;;;;;4.50;0.90;;;25.20;53.20;;;;;;5013697;28;20500;-65
2022/12/02 01:45:08;;;;;;;4.20;1.20;;;24.90;53.20;;;;;;5019647;28;20518;-65
2022/12/02 01:47:36;;;;;;;4.30;1.10;;;24.80;53.70;;;;;;5013780;28;20475;-62
2022/12/02 01:50:05;;;;;;;3.22;1.75;;;25.00;55.00;;;;;;5015580;28;20033;-65
2022/12/02 01:52:33;;;;;;;3.22;0.82;;;24.80;56.30;;;;;;5012447;28;20399;-64
2022/12/02 01:55:00;;;;;;;3.70;1.02;;;24.40;55.60;;;;;;5010735;28;20044;-64
2022/12/02 01:57:30;;;;;;;8.15;1.20;;;24.30;55.40;;;;;;5013221;28;20061;-64
2022/12/02 01:59:58;;;;;;;6.07;1.30;;;24.20;55.90;;;;;;5008724;28;20049;-64
2022/12/02 02:02:36;;;;;;;4.63;1.10;;;24.40;56.20;;;;;;5012028;28;20105;-65
2022/12/02 02:05:14;;;;;;;5.13;1.20;;;24.20;56.80;;;;;;5016856;28;20022;-65
2022/12/02 02:07:44;;;;;;;6.80;1.45;;;24.20;56.40;;;;;;5019066;28;20394;-64
2022/12/02 02:10:11;;;;;;;6.88;1.40;;;24.60;57.40;;;;;;5009702;28;20104;-64
2022/12/02 02:12:39;;;;;;;4.88;1.13;;;24.80;57.20;;;;;;5016293;28;20025;-63
2022/12/02 02:15:10;;;;;;;5.10;1.30;;;25.00;55.80;;;;;;5011544;28;20037;-65
2022/12/02 02:17:38;;;;;;;4.45;1.40;;;25.40;55.00;;;;;;5012424;28;20018;-65
2022/12/02 02:20:09;;;;;;;5.13;1.15;;;25.70;54.90;;;;;;5014530;28;20040;-65
2022/12/02 02:23:06;;;;;;;3.55;1.13;;;25.80;54.00;;;;;;5009151;28;20096;-64
2022/12/02 02:25:39;;;;;;;5.65;1.15;;;25.10;53.40;;;;;;5009084;28;20114;-64
2022/12/02 02:28:08;;;;;;;5.65;1.42;;;24.80;55.10;;;;;;5012556;28;20159;-63
2022/12/02 02:30:36;;;;;;;8.07;1.30;;;24.70;56.50;;;;;;5015495;28;20030;-63
2022/12/02 02:33:07;;;;;;;4.95;1.23;;;24.20;58.40;;;;;;5017746;28;20084;-63
2022/12/02 02:35:37;;;;;;;5.18;0.90;;;24.50;57.70;;;;;;5009082;28;20125;-63
2022/12/02 02:38:07;;;;;;;7.32;1.35;;;24.40;56.80;;;;;;5013066;28;20045;-63
2022/12/02 02:40:35;;;;;;;4.55;1.48;;;24.30;58.10;;;;;;5009378;28;20034;-65
2022/12/02 02:43:03;;;;;;;7.40;1.55;;;24.80;58.30;;;;;;5006273;28;21766;-67
2022/12/02 02:45:34;;;;;;;4.28;1.30;;;25.00;58.10;;;;;;5010415;28;20041;-68
2022/12/02 02:48:04;;;;;;;7.43;1.20;;;25.30;56.20;;;;;;5008792;28;20034;-68
2022/12/02 02:50:32;;;;;;;6.55;1.45;;;24.90;58.70;;;;;;5009932;28;20026;-68
2022/12/02 02:53:00;;;;;;;5.60;1.40;;;25.00;58.10;;;;;;5010934;28;20029;-67
2022/12/02 02:55:30;;;;;;;7.03;1.27;;;25.10;58.60;;;;;;5012890;28;20038;-66
2022/12/02 02:58:10;;;;;;;6.70;1.17;;;24.80;57.80;;;;;;5005445;28;20034;-66
2022/12/02 03:00:40;;;;;;;6.47;1.23;;;24.70;58.10;;;;;;5007737;28;20108;-67
2022/12/02 03:03:08;;;;;;;5.38;1.13;;;24.30;58.40;;;;;;5003226;28;20108;-66
2022/12/02 03:05:36;;;;;;;9.63;1.63;;;24.10;59.80;;;;;;5010777;28;20517;-68
2022/12/02 03:08:04;;;;;;;8.40;1.33;;;24.40;58.70;;;;;;5009964;28;20096;-68
2022/12/02 03:10:32;;;;;;;6.05;1.30;;;24.60;58.80;;;;;;5004146;28;20038;-68
2022/12/02 03:13:00;;;;;;;8.88;2.03;;;24.60;58.30;;;;;;5006766;28;20032;-67
2022/12/02 03:15:29;;;;;;;10.48;1.33;;;24.70;57.40;;;;;;5014527;28;20054;-68
2022/12/02 03:17:57;;;;;;;7.43;1.35;;;24.90;58.20;;;;;;5014404;28;20046;-67
2022/12/02 03:20:25;;;;;;;7.35;1.33;;;25.00;58.00;;;;;;5008390;28;20034;-67
2022/12/02 03:22:52;;;;;;;7.38;1.33;;;24.30;59.40;;;;;;5003393;28;20042;-67
2022/12/02 03:25:20;;;;;;;5.35;1.35;;;24.30;60.40;;;;;;5006193;28;20133;-68
2022/12/02 03:27:47;;;;;;;9.63;1.33;;;24.10;61.40;;;;;;5007712;28;20022;-68
2022/12/02 03:30:15;;;;;;;5.15;1.10;;;24.20;61.20;;;;;;5008690;28;20030;-67
2022/12/02 03:32:42;;;;;;;7.63;1.40;;;24.00;61.40;;;;;;5007504;28;20272;-68
2022/12/02 03:35:09;;;;;;;5.63;1.42;;;24.20;62.30;;;;;;5005404;28;20125;-66
2022/12/02 03:37:37;;;;;;;7.43;2.20;;;24.20;62.30;;;;;;5005873;28;20084;-68
2022/12/02 03:40:04;;;;;;;8.27;1.40;;;24.30;62.00;;;;;;5003925;28;20077;-68
2022/12/02 03:42:32;;;;;;;3.92;1.38;;;24.70;62.70;;;;;;5022882;28;20120;-64
2022/12/02 03:45:00;;;;;;;11.45;1.80;;;24.70;61.80;;;;;;5012614;28;20395;-68
2022/12/02 03:47:28;;;;;;;7.90;1.60;;;23.90;63.40;;;;;;5003130;28;20025;-68
2022/12/02 03:49:56;;;;;;;8.50;1.58;;;23.90;65.00;;;;;;5008296;28;20026;-68
2022/12/02 03:52:24;;;;;;;7.85;1.15;;;24.10;63.70;;;;;;4999845;28;20026;-68
2022/12/02 03:54:51;;;;;;;8.23;1.70;;;23.80;64.30;;;;;;5008431;28;20105;-69
2022/12/02 03:57:18;;;;;;;4.47;0.93;;;23.90;65.00;;;;;;5014883;28;20587;-69
2022/12/02 03:59:45;;;;;;;9.18;1.15;;;24.00;62.40;;;;;;5004964;28;20042;-69
2022/12/02 04:02:13;;;;;;;5.22;1.10;;;23.90;61.30;;;;;;5003063;28;20018;-69
2022/12/02 04:04:40;;;;;;;5.05;1.48;;;24.00;62.80;;;;;;5010409;28;20030;-69
2022/12/02 04:07:07;;;;;;;8.00;1.27;;;24.10;61.90;;;;;;5006115;28;20095;-69
2022/12/02 04:09:34;;;;;;;2.88;1.00;;;24.30;60.70;;;;;;5008009;28;20109;-69
2022/12/02 04:12:01;;;;;;;6.47;1.20;;;23.90;62.20;;;;;;5009610;28;20100;-69
2022/12/02 04:14:29;;;;;;;3.97;0.80;;;24.00;60.60;;;;;;5016426;28;20021;-68
2022/12/02 04:16:56;;;;;;;7.00;1.00;;;24.00;59.60;;;;;;5010880;28;20041;-68
2022/12/02 04:19:24;;;;;;;9.13;1.30;;;24.20;60.50;;;;;;5012685;28;20053;-69
2022/12/02 04:21:51;;;;;;;10.38;1.50;;;24.20;60.60;;;;;;5012409;28;20024;-69
2022/12/02 04:24:18;;;;;;;7.05;1.23;;;24.20;60.20;;;;;;5010056;28;20034;-69
2022/12/02 04:26:45;;;;;;;7.93;1.88;;;24.00;61.70;;;;;;5010817;28;20022;-68
2022/12/02 04:29:12;;;;;;;7.03;2.58;;;23.90;61.70;;;;;;5014680;28;20660;-69
2022/12/02 04:31:40;;;;;;;9.73;1.60;;;23.80;61.90;;;;;;5011622;28;20130;-68
2022/12/02 04:34:07;;;;;;;9.93;1.60;;;23.80;61.70;;;;;;5022258;28;20053;-69
2022/12/02 04:36:34;;;;;;;4.43;1.15;;;23.50;63.00;;;;;;5009893;28;20080;-68
2022/12/02 04:39:01;;;;;;;3.45;1.30;;;23.30;62.80;;;;;;5012107;28;20037;-68
2022/12/02 04:41:28;;;;;;;9.80;1.80;;;23.20;62.50;;;;;;5012423;28;20026;-69
2022/12/02 04:43:56;;;;;;;5.32;2.03;;;23.30;63.50;;;;;;5023631;28;20101;-68
2022/12/02 04:46:23;;;;;;;5.63;1.45;;;23.30;62.70;;;;;;5013016;28;20021;-68
2022/12/02 04:48:50;;;;;;;6.32;1.83;;;23.00;63.30;;;;;;5016120;28;20034;-69
2022/12/02 04:51:17;;;;;;;8.32;1.20;;;23.20;63.00;;;;;;5012252;28;20026;-68
2022/12/02 04:53:44;;;;;;;3.33;1.10;;;23.20;62.30;;;;;;5012163;28;20053;-69
2022/12/02 04:56:12;;;;;;;5.13;1.00;;;23.30;61.60;;;;;;5026290;28;20049;-69
2022/12/02 04:58:39;;;;;;;7.47;1.67;;;23.40;61.80;;;;;;5015035;28;20033;-70
2022/12/02 05:01:06;;;;;;;3.05;1.02;;;24.00;61.30;;;;;;5019917;28;20025;-71
2022/12/02 05:03:33;;;;;;;3.25;1.15;;;24.50;60.30;;;;;;5013049;28;20479;-71
2022/12/02 05:06:00;;;;;;;7.07;1.15;;;25.20;57.90;;;;;;5011374;28;20037;-71
2022/12/02 05:08:28;;;;;;;4.93;1.02;;;25.30;57.20;;;;;;5012834;28;20057;-70
2022/12/02 05:10:55;;;;;;;4.00;1.00;;;25.30;57.10;;;;;;5010912;28;20040;-71
2022/12/02 05:13:22;;;;;;;5.25;1.13;;;25.10;57.00;;;;;;5019965;28;20104;-69
2022/12/02 05:15:49;;;;;;;5.05;1.20;;;24.70;56.80;;;;;;5022515;28;20105;-69
2022/12/02 05:18:16;;;;;;;4.07;1.20;;;24.50;57.40;;;;;;5011615;28;20068;-68
2022/12/02 05:20:44;;;;;;;6.65;1.10;;;24.30;57.40;;;;;;5012693;28;20021;-69
2022/12/02 05:23:12;;;;;;;3.83;1.15;;;24.00;58.40;;;;;;5010738;28;20033;-69
2022/12/02 05:25:40;;;;;;;8.88;1.35;;;24.00;57.60;;;;;;5011751;28;20398;-69
2022/12/02 05:28:07;;;;;;;5.50;1.42;;;24.10;58.00;;;;;;5012834;28;20108;-70
2022/12/02 05:30:34;;;;;;;7.05;1.17;;;24.30;58.40;;;;;;5012559;28;20018;-70
2022/12/02 05:33:01;;;;;;;4.80;1.08;;;24.40;57.70;;;;;;5018566;28;20034;-70
2022/12/02 05:35:28;;;;;;;4.97;1.05;;;24.40;57.50;;;;;;5021950;28;20049;-69
2022/12/02 05:37:56;;;;;;;4.38;1.10;;;24.30;57.90;;;;;;5011177;28;20029;-69
2022/12/02 05:40:23;;;;;;;6.78;1.10;;;24.00;59.00;;;;;;5016632;28;20065;-69
2022/12/02 05:42:50;;;;;;;5.05;1.05;;;24.10;59.70;;;;;;5022116;28;20491;-68
2022/12/02 05:45:22;;;;;;;7.70;1.23;;;23.80;59.00;;;;;;5009787;28;20518;-69
2022/12/02 05:47:58;;;;;;;4.88;1.55;;;23.40;59.70;;;;;;5009008;28;20056;-69
2022/12/02 05:50:31;;;;;;;5.18;1.20;;;23.20;60.00;;;;;;5015791;28;20025;-68
2022/12/02 05:52:59;;;;;;;4.80;1.58;;;23.10;60.70;;;;;;5017804;28;20065;-70
2022/12/02 05:55:27;;;;;;;4.72;1.40;;;22.70;62.20;;;;;;5022698;28;20490;-68
2022/12/02 05:58:01;;;;;;;8.65;1.58;;;22.60;63.40;;;;;;5010807;28;20029;-68
2022/12/02 06:00:29;;;;;;;7.07;1.30;;;22.80;63.80;;;;;;5011423;28;20032;-68
2022/12/02 06:03:05;;;;;;;6.32;1.38;;;22.80;63.00;;;;;;5005574;28;20459;-67
2022/12/02 06:05:42;;;;;;;5.63;1.35;;;22.80;63.50;;;;;;5011372;28;20018;-70
2022/12/02 06:08:15;;;;;;;8.35;1.63;;;22.90;63.40;;;;;;5007511;28;20502;-70
2022/12/02 06:10:49;;;;;;;4.97;1.20;;;22.90;63.40;;;;;;5008535;28;20092;-70
2022/12/02 06:13:19;;;;;;;4.97;1.23;;;22.80;63.30;;;;;;5006693;28;20030;-68
2022/12/02 06:15:48;;;;;;;5.03;1.50;;;22.60;62.90;;;;;;5004960;28;20164;-69
2022/12/02 06:18:26;;;;;;;5.80;1.45;;;22.50;63.50;;;;;;5006011;28;20756;-70
2022/12/02 06:20:57;;;;;;;7.50;1.20;;;22.50;63.20;;;;;;5008438;28;20041;-69
2022/12/02 06:23:29;;;;;;;8.95;1.45;;;22.50;62.80;;;;;;5005883;28;20522;-71
2022/12/02 06:25:57;;;;;;;5.25;1.52;;;22.30;63.30;;;;;;5010708;28;20033;-70
2022/12/02 06:28:38;;;;;;;4.57;1.15;;;22.20;63.50;;;;;;5008670;28;20025;-70
2022/12/02 06:31:19;;;;;;;5.00;1.08;;;22.10;64.30;;;;;;5003689;28;20488;-70
2022/12/02 06:33:49;;;;;;;4.93;1.08;;;22.10;64.00;;;;;;5006786;28;20511;-68
2022/12/02 06:36:30;;;;;;;5.25;1.20;;;22.00;64.70;;;;;;5009377;28;20037;-67
2022/12/02 06:39:22;;;;;;;5.07;1.20;;;22.10;64.90;;;;;;5005721;28;20044;-68
2022/12/02 06:41:51;;;;;;;4.88;1.48;;;22.10;64.50;;;;;;5020006;28;20038;-68
2022/12/02 06:47:32;;;;;;;4.50;1.20;;;22.20;65.80;;;;;;5006948;28;20055;-66
2022/12/02 06:50:28;;;;;;;5.95;1.20;;;21.90;65.80;;;;;;5001073;28;20032;-67
2022/12/02 06:53:27;;;;;;;6.40;1.60;;;21.70;66.20;;;;;;5005965;28;20042;-68
2022/12/02 06:56:20;;;;;;;4.28;1.15;;;21.50;67.00;;;;;;4999465;28;20050;-68
2022/12/02 06:58:54;;;;;;;4.03;0.98;;;21.30;68.00;;;;;;5000932;28;20084;-67
2022/12/02 07:01:25;;;;;;;3.58;1.15;;;21.20;67.70;;;;;;5007672;28;20048;-67
2022/12/02 07:03:55;;;;;;;5.75;1.15;;;21.20;68.00;;;;;;5005255;28;20022;-67
2022/12/02 07:06:27;;;;;;;3.47;1.13;;;21.10;67.70;;;;;;5011781;28;20022;-67
2022/12/02 07:08:59;;;;;;;6.97;1.70;;;21.00;67.80;;;;;;5006221;28;20018;-66
2022/12/02 07:11:49;;;;;;;6.32;1.40;;;20.80;69.30;;;;;;5005030;28;20479;-68
2022/12/02 07:14:45;;;;;;;4.15;1.30;;;20.90;70.00;;;;;;5005168;28;20022;-69
2022/12/02 07:17:40;;;;;;;2.00;1.10;;;20.90;69.60;;;;;;4999421;28;20336;-69
2022/12/02 07:20:10;;;;;;;5.28;1.23;;;20.80;70.00;;;;;;5017905;28;20041;-66
2022/12/02 07:22:59;;;;;;;5.63;1.58;;;20.80;70.70;;;;;;5018901;28;20025;-66
2022/12/02 07:25:36;;;;;;;4.90;1.10;;;20.80;71.10;;;;;;5005919;28;20042;-68
2022/12/02 07:28:35;;;;;;;3.47;1.50;;;20.90;71.70;;;;;;5011257;28;20033;-68
2022/12/02 07:31:24;;;;;;;4.28;1.10;;;20.80;72.50;;;;;;5006374;28;20087;-69
2022/12/02 07:33:52;;;;;;;2.88;1.10;;;20.70;73.00;;;;;;5016025;28;20049;-67
2022/12/02 07:36:20;;;;;;;4.50;1.52;;;20.60;73.40;;;;;;5014479;28;20068;-67
2022/12/02 07:38:47;;;;;;;4.25;1.40;;;20.50;74.00;;;;;;5006146;28;20037;-62
2022/12/02 07:41:14;;;;;;;9.88;1.23;;;20.40;74.80;;;;;;5020116;28;20029;-62
2022/12/02 07:43:41;;;;;;;6.70;2.05;;;20.30;75.40;;;;;;5012575;28;20037;-62
2022/12/02 07:46:08;;;;;;;8.85;1.50;;;20.20;76.30;;;;;;5007156;28;20041;-62
2022/12/02 07:48:36;;;;;;;4.60;1.40;;;20.10;77.60;;;;;;5019911;28;20033;-60
2022/12/02 07:51:03;;;;;;;3.30;1.25;;;19.90;79.00;;;;;;5021602;28;20033;-62
2022/12/02 07:53:30;;;;;;;4.50;1.45;;;19.80;80.40;;;;;;5013034;28;20026;-62
2022/12/02 07:55:58;;;;;;;5.28;1.10;;;19.80;81.70;;;;;;5013859;28;20542;-61
2022/12/02 07:58:25;;;;;;;4.53;1.50;;;19.70;82.80;;;;;;5014562;28;20547;-62
2022/12/02 08:00:52;;;;;;;3.88;1.27;;;19.60;83.90;;;;;;5010746;28;20036;-62
2022/12/02 08:03:19;;;;;;;5.22;1.20;;;19.60;84.90;;;;;;5007945;28;20042;-62
2022/12/02 08:05:46;;;;;;;4.35;1.48;;;19.50;85.60;;;;;;5001649;28;20106;-62
2022/12/02 08:08:14;;;;;;;5.25;1.27;;;19.50;86.20;;;;;;5010126;28;20486;-62
2022/12/02 08:10:41;;;;;;;4.93;2.35;;;19.50;87.10;;;;;;5012548;28;20104;-62
2022/12/02 08:13:08;;;;;;;5.80;1.60;;;19.50;87.40;;;;;;5014311;28;20044;-61
2022/12/02 08:15:35;;;;;;;11.05;2.28;;;19.50;87.80;;;;;;5011371;28;20041;-61
2022/12/02 08:18:02;;;;;;;6.38;2.25;;;19.50;88.30;;;;;;5014737;28;20018;-61
2022/12/02 08:20:31;;;;;;;6.75;1.30;;;19.60;89.70;;;;;;5018785;28;20402;-62
2022/12/02 08:22:59;;;;;;;10.10;1.63;;;19.50;90.40;;;;;;5022094;28;20391;-62
2022/12/02 08:25:26;;;;;;;6.22;1.92;;;19.50;90.70;;;;;;5015499;28;20030;-61
2022/12/02 08:27:53;;;;;;;11.38;3.63;;;19.50;91.10;;;;;;5011799;28;20033;-61
2022/12/02 08:30:20;;;;;;;8.00;1.58;;;19.40;91.60;;;;;;5014195;28;20045;-60
2022/12/02 08:32:48;;;;;;;8.35;1.60;;;19.40;92.30;;;;;;5019050;28;20139;-61
2022/12/02 08:35:15;;;;;;;7.38;1.90;;;19.30;93.00;;;;;;5019354;28;20120;-61
2022/12/02 08:37:42;;;;;;;6.50;1.30;;;19.20;93.70;;;;;;5020852;28;20029;-61
2022/12/02 08:40:10;;;;;;;6.78;1.58;;;19.10;94.20;;;;;;5010318;28;20076;-61
2022/12/02 08:42:37;;;;;;;4.63;1.88;;;19.10;94.80;;;;;;5005708;28;20028;-61
2022/12/02 08:45:05;;;;;;;9.30;1.77;;;19.00;95.00;;;;;;5015224;28;20038;-61
2022/12/02 08:47:35;;;;;;;5.65;1.50;;;18.90;95.30;;;;;;5025997;28;20032;-61
2022/12/02 08:50:04;;;;;;;7.97;1.45;;;18.80;95.70;;;;;;5018252;28;20033;-62
2022/12/02 08:52:31;;;;;;;6.82;1.83;;;18.80;96.20;;;;;;5022898;28;20113;-62
2022/12/02 08:54:58;;;;;;;5.90;2.03;;;18.70;96.30;;;;;;5019508;28;20026;-62
2022/12/02 08:57:26;;;;;;;8.77;1.58;;;18.60;96.60;;;;;;5013250;28;20021;-62
2022/12/02 08:59:53;;;;;;;8.18;1.73;;;18.50;97.10;;;;;;5026148;28;20042;-61
2022/12/02 09:02:20;;;;;;;7.22;2.00;;;18.30;97.50;;;;;;5011170;28;20064;-60
2022/12/02 09:04:47;;;;;;;5.15;1.63;;;18.20;97.90;;;;;;5012448;28;20033;-61
2022/12/02 09:07:15;;;;;;;12.48;2.63;;;18.10;98.60;;;;;;5011160;28;20080;-61
2022/12/02 09:09:42;;;;;;;6.82;1.63;;;18.00;99.00;;;;;;5011366;28;20064;-62
2022/12/02 09:12:09;;;;;;;6.10;1.25;;;17.90;99.40;;;;;;5012905;28;20021;-61
2022/12/02 09:14:36;;;;;;;4.28;1.67;;;17.70;99.60;;;;;;5023632;28;20028;-60
2022/12/02 09:17:04;;;;;;;5.10;1.10;;;17.60;99.80;;;;;;5021983;28;20105;-61
2022/12/02 09:19:31;;;;;;;3.78;1.10;;;17.50;99.90;;;;;;5016627;28;20041;-61
2022/12/02 09:21:58;;;;;;;4.93;1.30;;;17.50;99.90;;;;;;5015775;28;20032;-62
2022/12/02 09:24:25;;;;;;;6.45;1.35;;;17.30;99.90;;;;;;5010806;28;20037;-61
2022/12/02 09:26:53;;;;;;;6.05;2.00;;;17.20;99.90;;;;;;5009997;28;20085;-61
2022/12/02 09:29:20;;;;;;;5.20;1.30;;;17.20;99.90;;;;;;5009556;28;20087;-62
2022/12/02 09:31:47;;;;;;;3.80;1.35;;;17.10;99.90;;;;;;5009227;28;20052;-61
2022/12/02 09:34:14;;;;;;;9.23;1.67;;;17.00;99.90;;;;;;5003746;28;20050;-62
2022/12/02 09:36:42;;;;;;;5.72;1.38;;;16.90;99.90;;;;;;5009534;28;20072;-62
2022/12/02 09:39:09;;;;;;;10.10;1.70;;;16.80;99.90;;;;;;5007980;28;20034;-63
2022/12/02 09:41:37;;;;;;;5.22;1.30;;;16.70;99.90;;;;;;5009209;28;20022;-62
2022/12/02 09:44:05;;;;;;;5.50;1.38;;;16.60;99.90;;;;;;5008704;28;20034;-61
2022/12/02 09:46:32;;;;;;;3.70;1.50;;;16.50;99.90;;;;;;5009044;28;20030;-61
2022/12/02 09:49:00;;;;;;;7.65;1.83;;;16.50;99.90;;;;;;5008925;28;20061;-62
2022/12/02 09:51:28;;;;;;;4.60;1.50;;;16.40;99.90;;;;;;5008686;28;20037;-62
2022/12/02 09:53:56;;;;;;;11.02;1.60;;;16.30;99.90;;;;;;5007507;28;20080;-63
2022/12/02 09:56:24;;;;;;;5.50;2.47;;;16.20;99.90;;;;;;5002576;28;20432;-61
2022/12/02 09:58:54;;;;;;;7.72;1.70;;;16.10;99.90;;;;;;5008231;28;20438;-62
2022/12/02 10:01:21;;;;;;;7.43;1.48;;;16.00;99.90;;;;;;5006770;28;20030;-62
2022/12/02 10:03:51;;;;;;;10.20;2.85;;;15.90;99.90;;;;;;5007676;28;20040;-63
2022/12/02 10:06:25;;;;;;;8.80;1.77;;;15.80;99.90;;;;;;5006392;28;20038;-62
2022/12/02 10:08:55;;;;;;;7.07;1.70;;;15.70;99.90;;;;;;5007463;28;20487;-62
2022/12/02 10:11:26;;;;;;;10.40;2.03;;;15.60;99.90;;;;;;5008029;28;20128;-61
2022/12/02 10:13:55;;;;;;;6.15;2.53;;;15.50;99.90;;;;;;5006184;28;20555;-62
2022/12/02 10:16:23;;;;;;;10.40;1.90;;;15.40;99.90;;;;;;5005825;28;20038;-62
2022/12/02 10:18:50;;;;;;;3.85;1.77;;;15.30;99.90;;;;;;5008602;28;20112;-61
2022/12/02 10:21:17;;;;;;;6.88;1.85;;;15.10;99.90;;;;;;5002750;28;20022;-62
2022/12/02 10:24:04;;;;;;;7.65;1.75;;;15.10;99.90;;;;;;5008865;28;20379;-61
2022/12/02 10:26:49;;;;;;;4.80;2.05;;;15.00;99.90;;;;;;5009207;28;20022;-61
2022/12/02 10:29:28;;;;;;;5.63;1.88;;;14.90;99.90;;;;;;5005284;28;20113;-62
2022/12/02 10:32:01;;;;;;;7.60;2.03;;;14.90;99.90;;;;;;5023862;28;20116;-61
2022/12/02 10:34:30;;;;;;;9.23;2.45;;;14.80;99.90;;;;;;5010664;28;20034;-61
2022/12/02 10:37:27;;;;;;;9.35;2.35;;;14.80;99.90;;;;;;5010742;28;20056;-62
2022/12/02 10:40:18;;;;;;;4.25;1.95;;;14.80;99.90;;;;;;5006109;28;20046;-62
2022/12/02 10:42:46;;;;;;;4.47;1.75;;;14.80;99.90;;;;;;5010360;28;20026;-62
2022/12/02 10:45:24;;;;;;;8.05;1.90;;;14.70;99.90;;;;;;5009869;28;20040;-62
2022/12/02 10:48:09;;;;;;;6.50;1.70;;;14.70;99.90;;;;;;5008025;28;20034;-61
2022/12/02 10:50:36;;;;;;;8.57;2.33;;;14.70;99.90;;;;;;5005901;28;20033;-60
2022/12/02 10:53:11;;;;;;;9.15;2.17;;;14.70;99.90;;;;;;5008574;28;20117;-61
2022/12/02 10:55:38;;;;;;;5.07;1.63;;;14.80;99.90;;;;;;5008170;28;20101;-61
2022/12/02 10:58:10;;;;;;;7.05;2.25;;;14.70;99.90;;;;;;5010181;28;20553;-62
2022/12/02 11:00:37;;;;;;;9.32;2.20;;;14.80;99.90;;;;;;5007514;28;20524;-62
2022/12/02 11:03:05;;;;;;;8.00;2.20;;;14.90;99.90;;;;;;5009343;28;20025;-61
2022/12/02 11:05:36;;;;;;;5.72;1.60;;;14.90;99.90;;;;;;5009561;28;20036;-62
2022/12/02 11:08:20;;;;;;;6.15;2.15;;;14.90;99.90;;;;;;5008975;28;20104;-62
2022/12/02 11:10:50;;;;;;;4.50;1.58;;;14.90;99.90;;;;;;5008682;28;20026;-62
2022/12/02 11:13:59;;;;;;;6.57;2.00;;;14.90;99.90;;;;;;5007888;28;20022;-62
2022/12/02 11:16:32;;;;;;;6.80;1.77;;;14.90;99.90;;;;;;4991248;28;20549;-62
2022/12/02 11:19:37;;;;;;;6.60;1.70;;;14.80;99.90;;;;;;5007932;28;20523;-62
2022/12/02 11:22:24;;;;;;;7.18;2.22;;;14.90;99.90;;;;;;5002107;28;20392;-60
2022/12/02 11:24:52;;;;;;;11.95;2.75;;;14.90;99.90;;;;;;5010798;28;20049;-61
2022/12/02 11:27:19;;;;;;;6.28;1.95;;;14.90;99.90;;;;;;4989937;28;20011;-62
2022/12/02 11:30:05;;;;;;;7.40;1.80;;;14.90;99.90;;;;;;4989408;28;20101;-60
2022/12/02 11:32:39;;;;;;;7.68;2.55;;;14.90;99.90;;;;;;5004307;28;20116;-60
2022/12/02 11:35:15;;;;;;;10.27;2.95;;;14.90;99.90;;;;;;5000498;28;20393;-60
2022/12/02 11:37:44;;;;;;;7.78;2.45;;;14.80;99.90;;;;;;5005065;28;20069;-64
2022/12/02 11:40:13;;;;;;;6.90;2.28;;;14.80;99.90;;;;;;5001991;28;20030;-63
2022/12/02 11:42:42;;;;;;;7.03;2.28;;;14.80;99.90;;;;;;4991849;28;20093;-64
2022/12/02 11:45:18;;;;;;;5.68;2.22;;;14.70;99.90;;;;;;5007989;28;20038;-65
2022/12/02 11:47:58;;;;;;;9.02;1.98;;;14.70;99.90;;;;;;5008103;28;20566;-65
2022/12/02 11:50:27;;;;;;;8.05;1.98;;;14.70;99.90;;;;;;5007313;28;20034;-65
2022/12/02 11:53:00;;;;;;;5.13;2.78;;;14.70;99.90;;;;;;5007901;28;20025;-65
2022/12/02 11:55:41;;;;;;;8.45;1.80;;;14.70;99.90;;;;;;5009637;28;20026;-65
2022/12/02 11:58:32;;;;;;;16.98;2.58;;;14.70;99.90;;;;;;5002540;28;20125;-65
2022/12/02 12:01:06;;;;;;;7.60;1.95;;;14.70;99.90;;;;;;5006454;28;20041;-65
2022/12/02 12:03:34;;;;;;;6.97;2.03;;;14.70;99.90;;;;;;5008947;28;20034;-64
2022/12/02 12:06:30;;;;;;;6.18;1.90;;;14.70;99.90;;;;;;5000563;28;20065;-65
2022/12/02 12:08:57;;;;;;;6.40;1.80;;;14.70;99.90;;;;;;4998599;28;20052;-66
2022/12/02 12:11:31;;;;;;;10.05;2.10;;;14.60;99.90;;;;;;4991611;28;20038;-65
2022/12/02 12:14:13;;;;;;;8.00;2.33;;;14.60;99.90;;;;;;5002812;28;20485;-65
2022/12/02 12:16:42;;;;;;;4.45;1.60;;;14.60;99.90;;;;;;4999426;28;20033;-63
2022/12/02 12:19:16;;;;;;;7.28;2.13;;;14.60;99.90;;;;;;4995625;28;20037;-63
2022/12/02 12:21:54;;;;;;;5.97;2.72;;;14.50;99.90;;;;;;5003770;28;20018;-65
2022/12/02 12:24:22;;;;;;;9.57;2.85;;;14.60;99.90;;;;;;5002516;28;20030;-65
2022/12/02 12:26:50;;;;;;;8.23;3.38;;;14.60;99.90;;;;;;4992597;28;20030;-65
2022/12/02 12:29:20;;;;;;;10.07;2.50;;;14.60;99.90;;;;;;4994923;28;20390;-65
2022/12/02 12:31:47;;;;;;;7.00;2.53;;;14.60;99.90;;;;;;5009004;28;20087;-65
2022/12/02 12:34:18;;;;;;;6.22;2.92;;;14.70;99.90;;;;;;5007313;28;20057;-65
2022/12/02 12:36:46;;;;;;;10.25;3.63;;;14.70;99.90;;;;;;5009732;28;20022;-65
2022/12/02 12:39:14;;;;;;;7.72;2.40;;;14.70;99.90;;;;;;5011927;28;20649;-65
2022/12/02 12:41:42;;;;;;;14.93;2.10;;;14.60;99.90;;;;;;5010996;28;20033;-65
2022/12/02 12:44:09;;;;;;;11.40;2.55;;;14.60;99.90;;;;;;5011322;28;20029;-65
2022/12/02 12:46:37;;;;;;;7.55;2.55;;;14.60;99.90;;;;;;5010506;28;20111;-65
2022/12/02 12:49:04;;;;;;;7.00;2.40;;;14.50;99.90;;;;;;5010716;28;20064;-65
2022/12/02 12:51:31;;;;;;;8.38;2.17;;;14.40;99.90;;;;;;5019705;28;20017;-64
2022/12/02 12:53:59;;;;;;;11.82;2.75;;;14.40;99.90;;;;;;5012536;28;20068;-65
2022/12/02 12:56:26;;;;;;;15.32;3.08;;;14.30;99.90;;;;;;4997027;28;20105;-65
2022/12/02 12:58:53;;;;;;;10.10;2.70;;;14.20;99.90;;;;;;5010359;28;20022;-65
2022/12/02 13:01:20;;;;;;;8.00;2.33;;;14.20;99.90;;;;;;5012237;28;20025;-65
2022/12/02 13:03:47;;;;;;;6.05;2.17;;;14.20;99.90;;;;;;5012440;28;20025;-65
2022/12/02 13:06:15;;;;;;;14.23;2.92;;;14.20;99.90;;;;;;5011251;28;20022;-65
2022/12/02 13:08:42;;;;;;;15.10;2.38;;;14.10;99.90;;;;;;5012506;28;20026;-65
2022/12/02 13:11:09;;;;;;;6.60;1.92;;;14.10;99.90;;;;;;5011435;28;20483;-65